createdAt,value
2018-03-26T00:01:35.573Z,27.03
2018-03-26T00:04:03.082Z,26.50
2018-03-26T00:06:30.560Z,25.77
2018-03-26T00:08:58.041Z,27.33
2018-03-26T00:11:25.535Z,26.47
2018-03-26T00:13:53.783Z,28.27
2018-03-26T00:16:21.237Z,29.33
2018-03-26T00:18:48.735Z,28.37
2018-03-26T00:21:16.225Z,29.13
2018-03-26T00:23:43.731Z,29.57
2018-03-26T00:26:11.986Z,31.53
2018-03-26T00:28:39.477Z,29.47
2018-03-26T00:31:06.955Z,28.07
2018-03-26T00:33:34.436Z,29.60
2018-03-26T00:36:01.918Z,30.67
2018-03-26T00:38:29.390Z,30.93
2018-03-26T00:40:57.628Z,28.60
2018-03-26T00:43:25.133Z,30.93
2018-03-26T00:45:52.652Z,31.10
2018-03-26T00:48:20.177Z,32.17
2018-03-26T00:50:47.656Z,31.80
2018-03-26T00:53:26.867Z,30.13
2018-03-26T00:55:54.351Z,33.50
2018-03-26T00:58:21.815Z,31.87
2018-03-26T01:00:50.060Z,31.83
2018-03-26T01:03:17.533Z,32.90
2018-03-26T01:05:45.016Z,32.60
2018-03-26T01:08:13.275Z,33.20
2018-03-26T01:10:40.749Z,33.73
2018-03-26T01:13:08.261Z,35.93
2018-03-26T01:15:35.796Z,34.53
2018-03-26T01:18:03.327Z,37.13
2018-03-26T01:20:31.009Z,36.17
2018-03-26T01:22:58.486Z,35.13
2018-03-26T01:25:26.128Z,36.13
2018-03-26T01:27:53.644Z,35.10
2018-03-26T01:30:21.894Z,35.33
2018-03-26T01:32:49.489Z,35.80
2018-03-26T01:35:17.990Z,35.70
2018-03-26T01:37:45.462Z,35.23
2018-03-26T01:40:13.042Z,36.20
2018-03-26T01:42:40.558Z,36.77
2018-03-26T01:45:08.329Z,36.97
2018-03-26T01:47:36.041Z,36.67
2018-03-26T01:50:04.357Z,37.23
2018-03-26T01:52:31.872Z,37.93
2018-03-26T01:54:59.388Z,37.00
2018-03-26T01:57:26.951Z,39.00
2018-03-26T01:59:55.873Z,37.73
2018-03-26T02:02:23.346Z,39.73
2018-03-26T02:04:51.584Z,41.83
2018-03-26T02:07:19.052Z,41.73
2018-03-26T02:09:46.521Z,43.60
2018-03-26T02:12:14.742Z,41.40
2018-03-26T02:14:42.256Z,41.63
2018-03-26T02:17:10.537Z,44.27
2018-03-26T02:19:39.109Z,45.33
2018-03-26T02:22:07.564Z,48.10
2018-03-26T02:24:35.041Z,44.23
2018-03-26T02:27:02.513Z,48.80
2018-03-26T02:29:30.789Z,50.93
2018-03-26T02:31:59.036Z,50.57
2018-03-26T02:34:26.520Z,51.17
2018-03-26T02:36:54.038Z,48.83
2018-03-26T02:39:21.508Z,48.53
2018-03-26T02:41:49.782Z,48.70
2018-03-26T02:44:18.252Z,48.60
2018-03-26T02:46:46.606Z,50.20
2018-03-26T02:49:14.069Z,48.87
2018-03-26T02:51:43.136Z,49.57
2018-03-26T02:54:10.610Z,48.23
2018-03-26T02:56:38.105Z,51.23
2018-03-26T02:59:06.396Z,46.93
2018-03-26T03:01:33.921Z,48.33
2018-03-26T03:04:01.462Z,48.40
2018-03-26T03:06:28.962Z,50.37
2018-03-26T03:08:57.207Z,47.67
2018-03-26T03:11:24.768Z,48.30
2018-03-26T03:13:52.550Z,45.97
2018-03-26T03:16:20.859Z,46.83
2018-03-26T03:18:48.348Z,48.13
2018-03-26T03:21:15.827Z,46.30
2018-03-26T03:23:44.104Z,49.73
2018-03-26T03:26:11.588Z,47.93
2018-03-26T03:28:39.170Z,47.57
2018-03-26T03:31:06.648Z,46.63
2018-03-26T03:33:34.155Z,46.50
2018-03-26T03:36:01.620Z,45.67
2018-03-26T03:38:29.100Z,46.07
2018-03-26T03:40:56.574Z,44.50
2018-03-26T03:43:24.070Z,44.13
2018-03-26T03:45:52.323Z,42.60
2018-03-26T03:48:19.803Z,42.73
2018-03-26T03:50:48.050Z,44.13
2018-03-26T03:53:15.540Z,44.67
2018-03-26T03:55:43.053Z,45.00
2018-03-26T03:58:10.566Z,41.67
2018-03-26T04:00:38.086Z,42.60
2018-03-26T04:03:05.547Z,40.83
2018-03-26T04:05:33.798Z,41.23
2018-03-26T04:08:01.349Z,39.83
2018-03-26T04:10:28.823Z,36.30
2018-03-26T04:12:56.290Z,39.83
2018-03-26T04:15:24.583Z,37.20
2018-03-26T04:17:52.841Z,39.47
2018-03-26T04:20:21.093Z,36.13
2018-03-26T04:22:48.587Z,37.30
2018-03-26T04:25:16.822Z,38.80
2018-03-26T04:27:44.313Z,38.57
2018-03-26T04:30:12.561Z,38.70
2018-03-26T04:32:40.034Z,36.43
2018-03-26T04:35:08.373Z,37.57
2018-03-26T04:37:35.874Z,34.80
2018-03-26T04:40:04.152Z,34.53
2018-03-26T04:42:32.435Z,36.53
2018-03-26T04:44:59.951Z,37.10
2018-03-26T04:47:27.461Z,33.33
2018-03-26T04:49:54.952Z,36.17
2018-03-26T04:52:22.419Z,36.83
2018-03-26T04:54:49.910Z,35.83
2018-03-26T04:57:18.143Z,36.70
2018-03-26T04:59:45.607Z,37.60
2018-03-26T05:02:13.103Z,37.20
2018-03-26T05:04:40.564Z,35.77
2018-03-26T05:07:08.053Z,37.53
2018-03-26T05:09:35.551Z,34.63
2018-03-26T05:12:03.820Z,36.43
2018-03-26T05:14:32.080Z,36.93
2018-03-26T05:17:01.086Z,35.47
2018-03-26T05:19:29.317Z,37.57
2018-03-26T05:21:56.813Z,37.63
2018-03-26T05:24:24.295Z,37.57
2018-03-26T05:26:51.816Z,35.67
2018-03-26T05:29:19.347Z,35.87
2018-03-26T05:31:46.814Z,37.17
2018-03-26T05:34:14.299Z,37.90
2018-03-26T05:36:41.900Z,37.17
2018-03-26T05:39:09.404Z,37.63
2018-03-26T05:41:36.897Z,38.83
2018-03-26T05:44:04.380Z,37.33
2018-03-26T05:46:31.862Z,38.23
2018-03-26T05:49:00.507Z,35.83
2018-03-26T05:51:28.015Z,38.77
2018-03-26T05:53:56.302Z,37.70
2018-03-26T05:56:23.743Z,36.83
2018-03-26T05:58:51.244Z,37.30
2018-03-26T06:01:18.703Z,37.10
2018-03-26T06:03:46.276Z,35.43
2018-03-26T06:06:13.764Z,37.97
2018-03-26T06:08:42.175Z,35.93
2018-03-26T06:11:09.677Z,37.93
2018-03-26T06:13:37.182Z,37.50
2018-03-26T06:16:05.691Z,38.77
2018-03-26T06:18:33.200Z,38.20
2018-03-26T06:21:00.688Z,38.47
2018-03-26T06:23:28.907Z,40.20
2018-03-26T06:25:56.397Z,42.33
2018-03-26T06:28:24.655Z,42.17
2018-03-26T06:30:52.149Z,39.60
2018-03-26T06:33:19.719Z,40.33
2018-03-26T06:35:47.240Z,41.00
2018-03-26T06:38:30.462Z,38.23
2018-03-26T06:40:57.951Z,40.20
2018-03-26T06:43:25.422Z,39.60
2018-03-26T06:45:52.911Z,39.47
2018-03-26T06:48:20.388Z,40.30
2018-03-26T06:50:48.649Z,40.33
2018-03-26T06:53:16.121Z,40.60
2018-03-26T06:55:44.373Z,40.00
2018-03-26T06:58:11.942Z,40.47
2018-03-26T07:00:40.228Z,41.13
2018-03-26T07:03:08.570Z,38.93
2018-03-26T07:05:36.059Z,42.67
2018-03-26T07:08:04.328Z,39.70
2018-03-26T07:10:32.566Z,40.97
2018-03-26T07:13:00.071Z,39.93
2018-03-26T07:15:28.319Z,40.13
2018-03-26T07:17:55.796Z,42.80
2018-03-26T07:20:24.064Z,42.23
2018-03-26T07:22:51.576Z,41.90
2018-03-26T07:25:19.067Z,40.67
2018-03-26T07:27:46.576Z,42.30
2018-03-26T07:30:14.118Z,45.27
2018-03-26T07:32:41.622Z,42.97
2018-03-26T07:35:09.128Z,42.63
2018-03-26T07:37:36.686Z,42.00
2018-03-26T07:40:04.195Z,43.40
2018-03-26T07:42:31.696Z,44.13
2018-03-26T07:44:59.166Z,42.30
2018-03-26T07:47:26.687Z,43.70
2018-03-26T07:49:54.166Z,43.23
2018-03-26T07:52:21.653Z,41.93
2018-03-26T07:54:49.173Z,41.73
2018-03-26T07:57:17.578Z,47.87
2018-03-26T07:59:45.084Z,50.20
2018-03-26T08:02:12.611Z,48.23
2018-03-26T08:04:40.174Z,43.50
2018-03-26T08:07:07.656Z,46.07
2018-03-26T08:09:35.176Z,46.17
2018-03-26T08:12:02.682Z,44.90
2018-03-26T08:14:31.014Z,43.70
2018-03-26T08:16:58.704Z,42.53
2018-03-26T08:19:26.232Z,44.80
2018-03-26T08:21:53.712Z,42.20
2018-03-26T08:24:21.262Z,42.30
2018-03-26T08:26:48.766Z,41.33
2018-03-26T08:29:16.281Z,41.53
2018-03-26T08:31:43.796Z,40.20
2018-03-26T08:34:11.270Z,39.80
2018-03-26T08:36:38.803Z,39.83
2018-03-26T08:39:06.285Z,37.53
2018-03-26T08:41:33.788Z,34.73
2018-03-26T08:44:02.045Z,35.27
2018-03-26T08:46:29.534Z,34.67
2018-03-26T08:48:57.025Z,32.10
2018-03-26T08:51:24.529Z,30.63
2018-03-26T08:53:52.793Z,30.43
2018-03-26T08:56:20.285Z,29.80
2018-03-26T08:58:47.764Z,26.63
2018-03-26T09:01:15.368Z,26.33
2018-03-26T09:03:43.746Z,20.07
2018-03-26T09:06:11.999Z,22.63
2018-03-26T09:08:39.513Z,20.63
2018-03-26T09:11:07.257Z,22.77
2018-03-26T09:13:34.980Z,24.93
2018-03-26T09:16:03.055Z,24.47
2018-03-26T09:18:30.592Z,24.17
2018-03-26T09:20:58.109Z,25.73
2018-03-26T09:23:25.614Z,21.43
2018-03-26T09:25:53.131Z,23.60
2018-03-26T09:28:20.649Z,25.13
2018-03-26T09:30:48.142Z,22.53
2018-03-26T09:33:15.856Z,21.00
2018-03-26T09:35:43.372Z,23.77
2018-03-26T09:38:10.939Z,20.80
2018-03-26T09:40:38.409Z,19.90
2018-03-26T09:43:06.004Z,18.30
2018-03-26T09:45:34.247Z,17.90
2018-03-26T09:48:01.742Z,16.57
2018-03-26T09:50:30.045Z,17.57
2018-03-26T09:52:57.533Z,21.37
2018-03-26T09:55:25.010Z,19.60
2018-03-26T09:57:53.260Z,18.53
2018-03-26T10:00:26.388Z,20.40
2018-03-26T10:02:53.865Z,18.70
2018-03-26T10:05:21.631Z,13.40
2018-03-26T10:07:49.124Z,12.10
2018-03-26T10:12:51.417Z,11.40
2018-03-26T10:15:18.933Z,8.47
2018-03-26T10:17:46.588Z,10.30
2018-03-26T10:20:14.177Z,11.43
2018-03-26T10:22:41.651Z,11.57
2018-03-26T10:25:09.185Z,10.27
2018-03-26T10:27:36.763Z,11.60
2018-03-26T10:30:04.274Z,12.60
2018-03-26T10:32:31.855Z,11.13
2018-03-26T10:34:59.365Z,9.30
2018-03-26T10:37:27.707Z,9.37
2018-03-26T10:39:55.307Z,8.80
2018-03-26T10:42:22.811Z,8.97
2018-03-26T10:44:50.341Z,8.23
2018-03-26T10:47:17.922Z,7.63
2018-03-26T10:49:45.532Z,6.50
2018-03-26T10:52:13.808Z,5.27
2018-03-26T10:54:42.063Z,5.33
2018-03-26T10:57:09.588Z,5.43
2018-03-26T10:59:37.139Z,5.47
2018-03-26T11:02:04.690Z,3.80
2018-03-26T11:04:32.166Z,5.47
2018-03-26T11:06:59.722Z,4.60
2018-03-26T11:09:27.210Z,4.80
2018-03-26T11:11:54.864Z,3.93
2018-03-26T11:14:23.121Z,4.30
2018-03-26T11:16:50.606Z,4.10
2018-03-26T11:19:18.870Z,4.30
2018-03-26T11:21:47.134Z,3.40
2018-03-26T11:24:16.111Z,5.20
2018-03-26T11:26:43.671Z,4.40
2018-03-26T11:29:11.243Z,3.97
2018-03-26T11:31:39.508Z,3.53
2018-03-26T11:34:07.014Z,3.60
2018-03-26T11:36:34.710Z,3.63
2018-03-26T11:39:02.253Z,3.57
2018-03-26T11:41:29.804Z,4.33
2018-03-26T11:46:31.312Z,4.20
2018-03-26T11:48:58.808Z,4.57
2018-03-26T11:51:26.338Z,2.90
2018-03-26T11:53:54.028Z,3.93
2018-03-26T11:56:21.614Z,3.57
2018-03-26T11:58:49.107Z,2.80
2018-03-26T12:01:16.822Z,3.00
2018-03-26T12:03:44.433Z,2.90
2018-03-26T12:06:11.930Z,2.97
2018-03-26T12:08:39.427Z,2.57
2018-03-26T12:11:06.906Z,2.67
2018-03-26T12:13:34.385Z,2.87
2018-03-26T12:16:01.906Z,3.73
2018-03-26T12:18:29.573Z,3.63
2018-03-26T12:20:59.224Z,3.83
2018-03-26T12:23:39.169Z,3.60
2018-03-26T12:26:07.002Z,3.27
2018-03-26T12:28:47.334Z,3.10
2018-03-26T12:31:14.917Z,3.40
2018-03-26T12:33:55.365Z,2.50
2018-03-26T12:36:22.935Z,2.37
2018-03-26T12:38:51.196Z,3.17
2018-03-26T12:41:18.689Z,3.80
2018-03-26T12:43:46.312Z,3.30
2018-03-26T12:46:25.695Z,2.80
2018-03-26T12:48:53.233Z,2.80
2018-03-26T12:51:32.822Z,2.57
2018-03-26T12:54:00.446Z,2.63
2018-03-26T12:56:28.051Z,2.70
2018-03-26T12:58:55.549Z,2.10
2018-03-26T13:01:34.957Z,2.37
2018-03-26T13:04:02.435Z,2.30
2018-03-26T13:06:30.792Z,3.00
2018-03-26T13:08:58.254Z,3.20
2018-03-26T13:11:26.548Z,2.90
2018-03-26T13:13:54.057Z,3.50
2018-03-26T13:16:21.536Z,3.27
2018-03-26T13:18:49.769Z,4.90
2018-03-26T13:21:17.311Z,4.10
2018-03-26T13:23:44.787Z,5.70
2018-03-26T13:26:12.248Z,5.83
2018-03-26T13:28:39.764Z,7.13
2018-03-26T13:31:07.233Z,6.80
2018-03-26T13:33:34.726Z,6.63
2018-03-26T13:36:02.959Z,6.63
2018-03-26T13:38:30.452Z,6.20
2018-03-26T13:40:59.446Z,6.80
2018-03-26T13:43:26.927Z,5.80
2018-03-26T13:45:55.173Z,5.43
2018-03-26T13:48:22.739Z,4.73
2018-03-26T13:50:50.214Z,5.30
2018-03-26T13:53:18.486Z,5.30
2018-03-26T13:55:46.087Z,6.23
2018-03-26T13:58:13.556Z,5.53
2018-03-26T14:00:41.024Z,5.40
2018-03-26T14:03:08.555Z,5.33
2018-03-26T14:05:36.039Z,4.90
2018-03-26T14:08:03.519Z,5.37
2018-03-26T14:10:42.849Z,5.07
2018-03-26T14:13:22.236Z,5.60
2018-03-26T14:16:01.634Z,5.20
2018-03-26T14:18:29.949Z,5.27
2018-03-26T14:20:58.147Z,5.83
2018-03-26T14:23:25.607Z,4.00
2018-03-26T14:25:53.093Z,4.17
2018-03-26T14:28:21.352Z,4.43
2018-03-26T14:30:50.409Z,3.73
2018-03-26T14:33:17.894Z,4.10
2018-03-26T14:35:45.457Z,4.63
2018-03-26T14:38:12.941Z,4.00
2018-03-26T14:40:41.200Z,3.57
2018-03-26T14:43:08.728Z,3.20
2018-03-26T14:45:36.203Z,3.03
2018-03-26T14:48:03.809Z,4.60
2018-03-26T14:50:31.279Z,3.23
2018-03-26T14:52:58.753Z,4.10
2018-03-26T14:55:26.271Z,4.00
2018-03-26T14:57:53.754Z,2.60
2018-03-26T15:00:21.232Z,2.77
2018-03-26T15:02:48.768Z,2.97
2018-03-26T15:05:16.217Z,3.30
2018-03-26T15:07:43.699Z,2.43
2018-03-26T15:10:11.166Z,3.10
2018-03-26T15:12:40.152Z,3.50
2018-03-26T15:15:07.627Z,2.77
2018-03-26T15:17:35.883Z,3.47
2018-03-26T15:20:04.248Z,3.07
2018-03-26T15:22:31.750Z,3.00
2018-03-26T15:24:59.999Z,2.27
2018-03-26T15:27:28.291Z,3.10
2018-03-26T15:29:55.722Z,3.20
2018-03-26T15:32:23.251Z,3.10
2018-03-26T15:34:50.710Z,3.57
2018-03-26T15:37:18.199Z,3.90
2018-03-26T15:39:46.467Z,2.97
2018-03-26T15:42:15.454Z,3.20
2018-03-26T15:44:42.935Z,3.20
2018-03-26T15:47:10.381Z,3.07
2018-03-26T15:49:38.659Z,2.90
2018-03-26T15:52:07.505Z,2.90
2018-03-26T15:54:34.980Z,3.27
2018-03-26T15:57:02.466Z,3.40
2018-03-26T15:59:30.724Z,3.03
2018-03-26T16:01:57.853Z,3.07
2018-03-26T16:04:25.331Z,3.00
2018-03-26T16:06:53.597Z,3.53
2018-03-26T16:09:21.098Z,3.23
2018-03-26T16:11:48.576Z,3.40
2018-03-26T16:14:16.059Z,3.57
2018-03-26T16:16:43.548Z,2.80
2018-03-26T16:19:11.854Z,3.43
2018-03-26T16:21:39.381Z,2.93
2018-03-26T16:24:07.621Z,3.50
2018-03-26T16:26:35.113Z,3.83
2018-03-26T16:29:03.353Z,3.63
2018-03-26T16:31:30.830Z,4.00
2018-03-26T16:33:59.071Z,4.47
2018-03-26T16:36:26.595Z,5.10
2018-03-26T16:38:54.063Z,4.87
2018-03-26T16:41:33.562Z,4.90
2018-03-26T16:44:01.206Z,4.20
2018-03-26T16:46:28.703Z,3.80
2018-03-26T16:48:56.204Z,4.00
2018-03-26T16:51:23.813Z,3.37
2018-03-26T16:53:51.298Z,4.00
2018-03-26T16:56:18.782Z,3.87
2018-03-26T16:58:46.291Z,4.70
2018-03-26T17:01:13.809Z,4.27
2018-03-26T17:03:42.109Z,3.97
2018-03-26T17:06:09.590Z,3.50
2018-03-26T17:08:37.073Z,3.77
2018-03-26T17:11:04.588Z,4.40
2018-03-26T17:13:32.058Z,3.80
2018-03-26T17:15:59.570Z,4.17
2018-03-26T17:18:27.872Z,4.07
2018-03-26T17:20:55.346Z,4.27
2018-03-26T17:23:22.829Z,6.53
2018-03-26T17:25:50.291Z,4.63
2018-03-26T17:28:17.844Z,3.87
2018-03-26T17:30:45.341Z,4.53
2018-03-26T17:33:12.847Z,4.40
2018-03-26T17:35:41.130Z,4.00
2018-03-26T17:38:08.614Z,4.77
2018-03-26T17:40:36.914Z,4.23
2018-03-26T17:43:04.392Z,4.30
2018-03-26T17:45:31.878Z,4.10
2018-03-26T17:47:59.387Z,4.90
2018-03-26T17:50:26.944Z,4.10
2018-03-26T17:52:55.152Z,4.57
2018-03-26T17:55:22.730Z,4.57
2018-03-26T17:57:50.999Z,4.80
2018-03-26T18:00:18.491Z,4.93
2018-03-26T18:02:46.070Z,4.77
2018-03-26T18:05:13.564Z,5.37
2018-03-26T18:07:42.559Z,5.03
2018-03-26T18:10:10.068Z,4.87
2018-03-26T18:12:37.543Z,5.03
2018-03-26T18:15:05.020Z,4.77
2018-03-26T18:17:33.771Z,5.20
2018-03-26T18:20:01.272Z,4.80
2018-03-26T18:22:28.770Z,5.60
2018-03-26T18:24:56.287Z,5.47
2018-03-26T18:27:23.763Z,4.40
2018-03-26T18:29:52.006Z,4.40
2018-03-26T18:32:19.490Z,5.57
2018-03-26T18:34:47.763Z,5.43
2018-03-26T18:37:16.036Z,5.00
2018-03-26T18:39:44.282Z,5.67
2018-03-26T18:42:11.765Z,5.87
2018-03-26T18:44:40.022Z,5.10
2018-03-26T18:47:07.530Z,6.47
2018-03-26T18:49:35.042Z,6.40
2018-03-26T18:52:02.517Z,5.87
2018-03-26T18:54:30.780Z,5.40
2018-03-26T18:56:59.092Z,5.30
2018-03-26T18:59:26.590Z,5.67
2018-03-26T19:01:54.096Z,6.33
2018-03-26T19:04:21.586Z,6.33
2018-03-26T19:06:49.112Z,6.50
2018-03-26T19:09:16.595Z,6.57
2018-03-26T19:11:44.094Z,6.30
2018-03-26T19:14:12.347Z,6.60
2018-03-26T19:16:39.862Z,6.63
2018-03-26T19:19:07.325Z,7.50
2018-03-26T19:21:34.826Z,6.37
2018-03-26T19:24:02.306Z,6.47
2018-03-26T19:26:29.833Z,6.40
2018-03-26T19:28:57.309Z,6.43
2018-03-26T19:31:25.918Z,7.33
2018-03-26T19:33:53.418Z,6.83
2018-03-26T19:36:20.932Z,6.53
2018-03-26T19:38:48.395Z,6.77
2018-03-26T19:41:15.887Z,6.10
2018-03-26T19:43:43.396Z,6.20
2018-03-26T19:46:10.879Z,6.53
2018-03-26T19:48:38.401Z,6.77
2018-03-26T19:51:05.876Z,6.20
2018-03-26T19:53:33.354Z,7.30
2018-03-26T19:56:00.872Z,7.77
2018-03-26T19:58:28.387Z,7.67
2018-03-26T20:00:55.851Z,7.40
2018-03-26T20:03:23.377Z,8.13
2018-03-26T20:05:50.871Z,7.43
2018-03-26T20:08:18.623Z,7.70
2018-03-26T20:10:46.889Z,7.07
2018-03-26T20:13:14.478Z,6.13
2018-03-26T20:15:42.711Z,7.10
2018-03-26T20:18:10.203Z,7.23
2018-03-26T20:20:38.473Z,7.97
2018-03-26T20:23:06.748Z,7.83
2018-03-26T20:25:34.989Z,7.07
2018-03-26T20:28:02.528Z,7.07
2018-03-26T20:30:30.019Z,6.80
2018-03-26T20:32:57.616Z,7.87
2018-03-26T20:35:25.136Z,7.37
2018-03-26T20:37:52.607Z,7.83
2018-03-26T20:40:20.915Z,7.40
2018-03-26T20:42:48.396Z,7.87
2018-03-26T20:45:15.888Z,8.23
2018-03-26T20:47:43.360Z,8.17
2018-03-26T20:50:11.618Z,8.17
2018-03-26T20:52:39.108Z,8.03
2018-03-26T20:55:06.617Z,7.90
2018-03-26T20:57:34.133Z,7.47
2018-03-26T21:00:01.632Z,9.50
2018-03-26T21:02:29.598Z,9.00
2018-03-26T21:04:57.089Z,8.87
2018-03-26T21:07:24.816Z,9.10
2018-03-26T21:09:52.278Z,9.00
2018-03-26T21:12:19.782Z,9.63
2018-03-26T21:14:48.151Z,8.53
2018-03-26T21:17:15.666Z,9.67
2018-03-26T21:19:43.208Z,9.13
2018-03-26T21:22:10.724Z,10.10
2018-03-26T21:24:38.277Z,10.10
2018-03-26T21:27:05.795Z,10.17
2018-03-26T21:29:33.410Z,10.00
2018-03-26T21:32:00.925Z,10.63
2018-03-26T21:34:28.732Z,9.97
2018-03-26T21:36:56.417Z,9.40
2018-03-26T21:39:23.909Z,9.60
2018-03-26T21:41:52.147Z,9.53
2018-03-26T21:44:20.351Z,9.30
2018-03-26T21:46:48.748Z,9.20
2018-03-26T21:49:16.241Z,9.33
2018-03-26T21:51:43.719Z,10.07
2018-03-26T21:54:11.212Z,10.43
2018-03-26T21:56:38.684Z,9.97
2018-03-26T21:59:06.205Z,10.83
2018-03-26T22:01:34.454Z,10.07
2018-03-26T22:04:01.964Z,11.03
2018-03-26T22:06:29.455Z,10.00
2018-03-26T22:08:57.002Z,10.77
2018-03-26T22:11:24.695Z,9.97
2018-03-26T22:13:52.162Z,9.00
2018-03-26T22:16:19.669Z,10.33
2018-03-26T22:18:47.158Z,9.50
2018-03-26T22:21:14.677Z,10.30
2018-03-26T22:23:42.249Z,10.53
2018-03-26T22:26:09.754Z,11.40
2018-03-26T22:28:37.988Z,11.90
2018-03-26T22:31:05.498Z,10.23
2018-03-26T22:33:33.001Z,10.83
2018-03-26T22:36:00.502Z,11.37
2018-03-26T22:38:28.735Z,12.87
2018-03-26T22:40:56.209Z,12.77
2018-03-26T22:43:24.529Z,12.50
2018-03-26T22:45:52.019Z,13.67
2018-03-26T22:48:19.493Z,12.37
2018-03-26T22:50:46.980Z,13.23
2018-03-26T22:53:15.219Z,14.13
2018-03-26T22:55:42.710Z,13.23
2018-03-26T22:58:10.945Z,14.07
2018-03-26T23:00:38.475Z,14.17
2018-03-26T23:03:05.930Z,15.00
2018-03-26T23:05:33.423Z,14.73
2018-03-26T23:08:00.922Z,14.13
2018-03-26T23:10:28.395Z,14.20
2018-03-26T23:12:55.887Z,16.87
2018-03-26T23:15:23.406Z,15.87
2018-03-26T23:17:51.002Z,17.30
2018-03-26T23:20:18.496Z,15.40
2018-03-26T23:22:48.741Z,15.37
2018-03-26T23:25:16.202Z,15.83
2018-03-26T23:27:43.674Z,16.97
2018-03-26T23:30:11.159Z,19.97
2018-03-26T23:32:38.649Z,19.83
2018-03-26T23:35:06.118Z,17.63
2018-03-26T23:37:33.594Z,16.67
2018-03-26T23:40:01.066Z,17.53
2018-03-26T23:42:28.540Z,16.63
2018-03-26T23:44:56.021Z,20.17
2018-03-26T23:47:24.302Z,19.00
2018-03-26T23:49:51.774Z,19.90
2018-03-26T23:52:19.247Z,21.03
2018-03-26T23:54:46.743Z,25.07
2018-03-26T23:57:14.235Z,23.73
2018-03-26T23:59:41.728Z,25.77
